Terminal Aerodrome Forecast
Issued by NWS

Home | Current Version | Previous Version | Text Only | Print | Product List | Glossary On
Versions: 1 2 3 4 5 6 7 8 9 10 11 12 13 14 15 16 17
627
FTUS42 KTAE 291120
TAFECP
TAF
KECP 291120Z 2912/3012 08003KT P6SM BKN007
     FM291400 12012KT P6SM BKN030
     FM291700 17013G18KT P6SM SCT040=

USA.gov is the U.S. government's official web portal to all federal, state and local government web resources and services.